Time;durP1;ratioP1;P1;durP2;ratioP2;P2;SDS_P1;SDS_P2;PMS_P1;PMS_P2;Temp;Humidity;BMP_temperature;BMP_pressure;BME280_temperature;BME280_humidity;BME280_pressure;Samples;Min_cycle;Max_cycle;Signal;HPM_P1;HPM_P2
2021/04/02 00:01:59;;;;;;;31.27;19.25;;;9.40;99.90;;;;;;4090418;34;21046;31
2021/04/02 00:04:29;;;;;;;23.98;17.65;;;9.50;99.90;;;;;;4068029;34;20042;31
2021/04/02 00:06:59;;;;;;;27.17;17.65;;;9.40;99.90;;;;;;4080030;34;20027;31
2021/04/02 00:09:30;;;;;;;25.55;17.85;;;9.40;99.90;;;;;;4078265;34;20046;31
2021/04/02 00:12:00;;;;;;;24.95;16.92;;;9.30;99.90;;;;;;4090643;34;20030;31
2021/04/02 00:14:31;;;;;;;24.67;17.05;;;9.30;99.90;;;;;;4092425;34;20038;31
2021/04/02 00:17:01;;;;;;;23.60;15.77;;;9.20;99.90;;;;;;4098535;34;20159;31
2021/04/02 00:19:32;;;;;;;23.23;16.85;;;9.20;99.90;;;;;;4077187;34;20148;31
2021/04/02 00:22:03;;;;;;;20.58;16.17;;;9.10;99.90;;;;;;4067711;34;20936;31
2021/04/02 00:24:34;;;;;;;21.40;16.02;;;9.10;99.90;;;;;;4077657;34;20055;31
2021/04/02 00:27:04;;;;;;;22.05;16.13;;;9.10;99.90;;;;;;4066863;34;19914;31
2021/04/02 00:29:35;;;;;;;25.40;18.70;;;9.10;99.90;;;;;;4054438;34;20043;31
2021/04/02 00:32:06;;;;;;;24.95;17.35;;;9.10;99.90;;;;;;4087029;34;20152;31
2021/04/02 00:34:37;;;;;;;24.60;18.52;;;9.00;99.90;;;;;;4048713;34;20180;31
2021/04/02 00:37:07;;;;;;;30.75;20.65;;;9.10;99.90;;;;;;4089131;34;20031;31
2021/04/02 00:39:37;;;;;;;28.08;21.90;;;9.00;99.90;;;;;;4037415;34;20046;31
2021/04/02 00:42:07;;;;;;;35.13;22.55;;;9.00;99.90;;;;;;4068074;34;20038;31
2021/04/02 00:44:37;;;;;;;39.60;24.85;;;9.00;99.90;;;;;;4066252;34;20057;31
2021/04/02 00:47:09;;;;;;;34.10;23.90;;;8.90;99.90;;;;;;4079352;34;20027;31
2021/04/02 00:49:40;;;;;;;32.20;23.77;;;8.90;99.90;;;;;;4079626;34;20888;31
2021/04/02 00:52:10;;;;;;;33.80;24.35;;;8.80;99.90;;;;;;4067971;34;20027;31
2021/04/02 00:54:41;;;;;;;31.25;23.05;;;8.80;99.90;;;;;;4078275;34;20042;31
2021/04/02 00:57:12;;;;;;;39.85;26.42;;;8.70;99.90;;;;;;4067194;34;20109;31
2021/04/02 00:59:42;;;;;;;34.65;25.40;;;8.70;99.90;;;;;;4067575;34;20031;31
2021/04/02 01:02:13;;;;;;;31.75;23.10;;;8.60;99.90;;;;;;4067964;34;20081;31
2021/04/02 01:04:43;;;;;;;39.10;25.93;;;8.60;99.90;;;;;;4066976;34;20069;31
2021/04/02 01:07:14;;;;;;;38.20;26.80;;;8.50;99.90;;;;;;4044729;34;20036;31
2021/04/02 01:09:45;;;;;;;33.37;24.73;;;8.50;99.90;;;;;;4052947;34;20029;31
2021/04/02 01:12:16;;;;;;;30.67;23.27;;;8.40;99.90;;;;;;4068468;34;20757;31
2021/04/02 01:14:47;;;;;;;30.50;21.30;;;8.30;99.90;;;;;;4065401;34;20054;31
2021/04/02 01:17:19;;;;;;;28.60;20.73;;;8.20;99.90;;;;;;4088370;34;20038;31
2021/04/02 01:19:50;;;;;;;26.45;20.45;;;8.10;99.90;;;;;;4080659;34;20945;31
2021/04/02 01:22:27;;;;;;;29.10;19.80;;;8.10;99.90;;;;;;4081316;34;20034;31
2021/04/02 01:25:09;;;;;;;25.77;18.52;;;8.00;99.90;;;;;;4098250;34;20117;31
2021/04/02 01:27:57;;;;;;;25.48;17.35;;;8.00;99.90;;;;;;4102021;34;20136;31
2021/04/02 01:30:28;;;;;;;22.25;16.38;;;8.00;99.90;;;;;;4090363;34;20054;31
2021/04/02 01:32:59;;;;;;;20.40;15.98;;;7.90;99.90;;;;;;4082791;34;20081;31
2021/04/02 01:35:33;;;;;;;26.83;16.40;;;7.90;99.90;;;;;;4089760;34;20897;31
2021/04/02 01:38:19;;;;;;;21.98;16.45;;;7.80;99.90;;;;;;4081713;34;20869;31
2021/04/02 01:40:53;;;;;;;26.17;17.63;;;7.80;99.90;;;;;;4103143;34;20030;31
2021/04/02 01:43:31;;;;;;;24.00;16.80;;;7.70;99.90;;;;;;4079117;34;20032;31
2021/04/02 01:46:02;;;;;;;28.40;18.15;;;7.70;99.90;;;;;;4070384;34;20027;31
2021/04/02 01:48:34;;;;;;;24.80;16.67;;;7.60;99.90;;;;;;4081539;34;20031;31
2021/04/02 01:51:05;;;;;;;23.53;16.60;;;7.60;99.90;;;;;;4092152;34;20037;31
2021/04/02 01:53:36;;;;;;;25.65;18.40;;;7.50;99.90;;;;;;4071086;34;20031;31
2021/04/02 01:56:07;;;;;;;24.58;17.27;;;7.50;99.90;;;;;;4070278;34;25030;31
2021/04/02 01:58:41;;;;;;;26.05;17.80;;;7.40;99.90;;;;;;4071825;34;19938;31
2021/04/02 02:01:16;;;;;;;24.90;17.30;;;7.30;99.90;;;;;;4093981;34;20023;31
2021/04/02 02:03:53;;;;;;;25.15;17.15;;;7.30;99.90;;;;;;4092083;34;20995;31
2021/04/02 02:06:24;;;;;;;26.10;17.80;;;7.30;99.90;;;;;;4072199;34;20832;31
2021/04/02 02:09:15;;;;;;;23.95;16.98;;;7.30;99.90;;;;;;4076138;34;20039;31
2021/04/02 02:11:46;;;;;;;25.20;17.38;;;7.30;99.90;;;;;;4083648;34;20031;31
2021/04/02 02:14:21;;;;;;;23.73;16.63;;;7.30;99.90;;;;;;4093588;34;20031;31
2021/04/02 02:17:06;;;;;;;27.02;18.52;;;7.30;99.90;;;;;;4073437;34;20237;31
2021/04/02 02:19:38;;;;;;;21.90;17.10;;;7.30;99.90;;;;;;4057669;34;20043;31
2021/04/02 02:22:11;;;;;;;24.25;18.20;;;7.30;99.90;;;;;;4070306;34;20999;31
2021/04/02 02:24:51;;;;;;;26.95;19.60;;;7.30;99.90;;;;;;4062218;34;20039;31
2021/04/02 02:27:23;;;;;;;27.73;19.40;;;7.30;99.90;;;;;;4070008;34;20050;31
2021/04/02 02:29:54;;;;;;;29.83;19.70;;;7.20;99.90;;;;;;4080111;34;20216;31
2021/04/02 02:32:25;;;;;;;28.10;20.60;;;7.20;99.90;;;;;;4093096;34;19925;31
2021/04/02 02:34:56;;;;;;;28.60;21.40;;;7.10;99.90;;;;;;4088751;34;20027;31
2021/04/02 02:37:27;;;;;;;26.45;20.80;;;7.10;99.90;;;;;;4114167;34;20065;31
2021/04/02 02:39:57;;;;;;;28.08;19.95;;;7.10;99.90;;;;;;4083578;34;20027;31
2021/04/02 02:42:28;;;;;;;27.67;21.02;;;7.00;99.90;;;;;;4114123;34;20040;31
2021/04/02 02:44:56;;;;;;;30.10;21.63;;;7.00;99.90;;;;;;4070230;34;22280;31
2021/04/02 02:47:26;;;;;;;26.98;20.98;;;7.00;99.90;;;;;;4078988;34;20935;31
2021/04/02 02:50:00;;;;;;;25.40;19.65;;;7.00;99.90;;;;;;4104128;34;20908;31
2021/04/02 02:52:31;;;;;;;23.40;19.00;;;7.00;99.90;;;;;;4070246;34;20058;31
2021/04/02 02:55:01;;;;;;;23.40;17.20;;;7.00;99.90;;;;;;4102953;34;20033;31
2021/04/02 02:57:32;;;;;;;20.90;16.73;;;7.00;99.90;;;;;;4080448;34;20031;31
2021/04/02 03:00:17;;;;;;;22.30;18.05;;;6.90;99.90;;;;;;4093170;34;20146;31
2021/04/02 03:02:49;;;;;;;20.80;16.90;;;6.90;99.90;;;;;;4070100;34;20038;31
2021/04/02 03:05:28;;;;;;;22.02;17.70;;;6.90;99.90;;;;;;4083878;34;20119;31
2021/04/02 03:08:00;;;;;;;20.15;14.20;;;6.90;99.90;;;;;;4092040;34;20042;31
2021/04/02 03:10:35;;;;;;;18.50;14.68;;;6.90;99.90;;;;;;4084128;34;20031;31
2021/04/02 03:13:06;;;;;;;16.93;14.20;;;6.90;99.90;;;;;;4094233;34;20046;31
2021/04/02 03:15:37;;;;;;;18.35;15.40;;;6.90;99.90;;;;;;4082909;34;20206;31
2021/04/02 03:18:10;;;;;;;22.33;15.27;;;6.90;99.90;;;;;;4080532;34;20037;31
2021/04/02 03:20:42;;;;;;;19.20;14.05;;;6.90;99.90;;;;;;4093771;34;20058;31
2021/04/02 03:23:14;;;;;;;17.30;14.45;;;6.90;99.90;;;;;;4068571;34;20060;31
2021/04/02 03:25:46;;;;;;;17.05;13.77;;;6.90;99.90;;;;;;4069327;34;20063;31
2021/04/02 03:28:18;;;;;;;17.67;13.83;;;6.90;99.90;;;;;;4092391;34;20041;31
2021/04/02 03:30:52;;;;;;;17.52;14.20;;;6.90;99.90;;;;;;4071667;34;20248;31
2021/04/02 03:33:27;;;;;;;21.90;13.20;;;6.80;99.90;;;;;;4071555;34;20086;31
2021/04/02 03:36:11;;;;;;;16.25;12.60;;;6.80;99.90;;;;;;4072779;34;20038;31
2021/04/02 03:38:44;;;;;;;14.93;12.85;;;6.80;99.90;;;;;;4069776;34;20038;31
2021/04/02 03:41:26;;;;;;;15.85;11.75;;;6.80;99.90;;;;;;4093082;34;20081;31
2021/04/02 03:43:59;;;;;;;14.10;11.05;;;6.80;99.90;;;;;;4071005;34;20031;31
2021/04/02 03:46:30;;;;;;;14.70;11.82;;;6.80;99.90;;;;;;4092264;34;20031;31
2021/04/02 03:49:03;;;;;;;16.80;11.65;;;6.80;99.90;;;;;;4079110;34;20027;31
2021/04/02 03:51:39;;;;;;;13.02;10.52;;;6.70;99.90;;;;;;4080913;34;20031;31
2021/04/02 03:54:12;;;;;;;13.68;10.30;;;6.70;99.90;;;;;;4059080;34;20031;31
2021/04/02 03:56:43;;;;;;;12.80;9.97;;;6.60;99.90;;;;;;4069851;34;20032;31
2021/04/02 03:59:17;;;;;;;10.75;9.30;;;6.60;99.90;;;;;;4093012;34;20072;31
2021/04/02 04:01:56;;;;;;;10.50;9.00;;;6.40;99.90;;;;;;4068896;34;20039;31
2021/04/02 04:04:28;;;;;;;10.05;7.95;;;6.40;99.90;;;;;;4114394;34;20038;31
2021/04/02 04:06:59;;;;;;;9.55;7.95;;;6.30;99.90;;;;;;4092643;34;20166;31
2021/04/02 04:09:31;;;;;;;11.82;8.90;;;6.40;99.90;;;;;;4070610;34;20061;31
2021/04/02 04:12:09;;;;;;;11.65;9.65;;;6.40;99.90;;;;;;4094067;34;20049;31
2021/04/02 04:14:50;;;;;;;15.52;10.90;;;6.40;99.90;;;;;;4072054;34;22249;31
2021/04/02 04:17:29;;;;;;;16.45;12.32;;;6.40;99.90;;;;;;4082252;34;20023;31
2021/04/02 04:20:07;;;;;;;11.87;9.70;;;6.40;99.90;;;;;;4071641;34;20027;31
2021/04/02 04:22:47;;;;;;;11.32;9.02;;;6.30;99.90;;;;;;4093090;34;20026;31
2021/04/02 04:25:20;;;;;;;13.10;9.68;;;6.30;99.90;;;;;;4082042;34;20994;31
2021/04/02 04:27:50;;;;;;;14.75;9.45;;;6.20;99.90;;;;;;4068715;34;20031;31
2021/04/02 04:30:20;;;;;;;29.53;16.10;;;6.10;99.90;;;;;;4090543;34;20062;31
2021/04/02 04:32:52;;;;;;;14.50;10.95;;;6.10;99.90;;;;;;4080458;34;20032;31
2021/04/02 04:35:23;;;;;;;18.83;13.80;;;6.00;99.90;;;;;;4081884;34;20027;31
2021/04/02 04:38:15;;;;;;;13.18;8.93;;;6.00;99.90;;;;;;4092651;34;20026;31
2021/04/02 04:40:45;;;;;;;12.13;9.50;;;6.00;99.90;;;;;;4091090;34;20144;31
2021/04/02 04:43:16;;;;;;;11.27;9.20;;;6.00;99.90;;;;;;4078462;34;20151;31
2021/04/02 04:45:46;;;;;;;10.45;8.50;;;6.00;99.90;;;;;;4092298;34;20030;31
2021/04/02 04:48:17;;;;;;;11.07;9.40;;;5.90;99.90;;;;;;4092302;34;20027;31
2021/04/02 04:50:47;;;;;;;11.20;8.63;;;5.90;99.90;;;;;;4042915;34;20032;31
2021/04/02 04:53:28;;;;;;;13.63;9.30;;;5.90;99.90;;;;;;4089948;34;20227;31
2021/04/02 04:56:01;;;;;;;14.10;10.10;;;5.90;99.90;;;;;;4065233;34;20046;31
2021/04/02 04:58:33;;;;;;;10.98;8.85;;;5.90;99.90;;;;;;4076448;34;20028;31
2021/04/02 05:01:05;;;;;;;13.25;10.50;;;5.90;99.90;;;;;;4067463;34;21595;31
2021/04/02 05:03:35;;;;;;;11.48;10.05;;;5.90;99.90;;;;;;4111535;34;20112;31
2021/04/02 05:06:06;;;;;;;12.40;9.13;;;5.80;99.90;;;;;;4069188;34;20031;31
2021/04/02 05:08:45;;;;;;;10.88;8.82;;;5.80;99.90;;;;;;4078285;34;20151;31
2021/04/02 05:11:16;;;;;;;11.15;8.80;;;5.90;99.90;;;;;;4069197;34;20144;31
2021/04/02 05:13:48;;;;;;;10.95;9.40;;;5.80;99.90;;;;;;4102877;34;20086;31
2021/04/02 05:16:20;;;;;;;11.98;8.50;;;5.80;99.90;;;;;;4067522;34;20806;31
2021/04/02 05:18:51;;;;;;;11.25;8.70;;;5.80;99.90;;;;;;4068163;34;20032;31
2021/04/02 05:21:22;;;;;;;8.60;7.03;;;5.80;99.90;;;;;;4092612;34;20026;31
2021/04/02 05:23:52;;;;;;;9.25;7.80;;;5.80;99.90;;;;;;4078209;34;20037;31
2021/04/02 05:26:23;;;;;;;10.85;8.93;;;5.80;99.90;;;;;;4069484;34;20051;31
2021/04/02 05:28:54;;;;;;;12.02;7.38;;;5.90;99.90;;;;;;4104606;34;20030;31
2021/04/02 05:31:24;;;;;;;8.77;7.75;;;5.80;99.90;;;;;;4070247;34;20047;31
2021/04/02 05:34:14;;;;;;;9.13;7.57;;;5.80;99.90;;;;;;4098503;34;20042;31
2021/04/02 05:36:45;;;;;;;9.05;6.75;;;5.80;99.90;;;;;;4090856;34;19915;31
2021/04/02 05:39:15;;;;;;;8.65;7.00;;;5.80;99.90;;;;;;4080031;34;20859;31
2021/04/02 05:42:01;;;;;;;8.00;6.47;;;5.70;99.90;;;;;;4079083;34;20975;31
2021/04/02 05:44:33;;;;;;;9.95;7.70;;;5.70;99.90;;;;;;4134554;34;20045;31
2021/04/02 05:47:05;;;;;;;7.38;6.47;;;5.80;99.90;;;;;;4071251;34;20023;31
2021/04/02 05:49:36;;;;;;;8.47;6.90;;;5.70;99.90;;;;;;4101997;34;20147;31
2021/04/02 05:52:07;;;;;;;9.30;7.60;;;5.70;99.90;;;;;;4072662;34;20143;31
2021/04/02 05:54:41;;;;;;;8.45;6.85;;;5.70;99.90;;;;;;4113349;34;20208;31
2021/04/02 05:57:11;;;;;;;9.10;8.10;;;5.70;99.90;;;;;;4079588;34;20028;31
2021/04/02 05:59:42;;;;;;;7.65;5.88;;;5.80;99.90;;;;;;4067754;34;20087;31
2021/04/02 06:02:12;;;;;;;9.32;6.70;;;5.80;99.90;;;;;;4082624;34;20094;31
2021/04/02 06:04:44;;;;;;;9.03;6.57;;;5.80;99.90;;;;;;4092222;34;20030;31
2021/04/02 06:07:30;;;;;;;5.55;4.88;;;5.80;99.90;;;;;;4116188;34;20041;31
2021/04/02 06:10:00;;;;;;;7.67;4.93;;;5.90;99.90;;;;;;4103748;34;20055;31
2021/04/02 06:12:35;;;;;;;6.60;5.45;;;5.80;99.90;;;;;;4089571;34;20042;31
2021/04/02 06:15:07;;;;;;;7.23;5.93;;;5.90;99.90;;;;;;4102782;34;20030;31
2021/04/02 06:18:07;;;;;;;8.75;6.85;;;5.90;99.90;;;;;;4103435;34;20146;31
2021/04/02 06:20:41;;;;;;;8.10;6.80;;;5.90;99.90;;;;;;4088221;34;20060;31
2021/04/02 06:23:15;;;;;;;8.63;7.25;;;5.80;99.90;;;;;;4078358;34;20080;31
2021/04/02 06:25:55;;;;;;;8.93;7.38;;;5.80;99.90;;;;;;4102437;34;20047;31
2021/04/02 06:28:27;;;;;;;8.75;7.30;;;5.80;99.90;;;;;;4078345;34;20050;31
2021/04/02 06:31:35;;;;;;;9.93;7.43;;;5.70;99.90;;;;;;4086090;34;20086;31
2021/04/02 06:34:06;;;;;;;7.65;6.65;;;5.70;99.90;;;;;;4086088;34;20051;31
2021/04/02 06:36:37;;;;;;;8.60;7.78;;;5.70;99.90;;;;;;4087753;34;20148;31
2021/04/02 06:39:09;;;;;;;10.57;7.90;;;5.80;99.90;;;;;;4088948;34;19914;31
2021/04/02 06:41:41;;;;;;;11.63;7.63;;;5.70;99.90;;;;;;4111154;34;20162;31
2021/04/02 06:44:12;;;;;;;10.07;7.72;;;5.70;99.90;;;;;;4090523;34;20027;31
2021/04/02 06:46:43;;;;;;;11.30;8.10;;;5.70;99.90;;;;;;4065786;34;20058;31
2021/04/02 06:49:20;;;;;;;8.77;6.88;;;5.70;99.90;;;;;;4101599;34;20031;31
2021/04/02 06:51:52;;;;;;;11.35;7.15;;;5.70;99.90;;;;;;4092039;34;20114;31
2021/04/02 06:54:25;;;;;;;9.13;7.25;;;5.70;99.90;;;;;;4079328;34;20084;31
2021/04/02 06:56:55;;;;;;;8.80;7.60;;;5.70;99.90;;;;;;4101826;34;20026;31
2021/04/02 06:59:27;;;;;;;9.40;7.65;;;5.70;99.90;;;;;;4091798;34;20983;31
2021/04/02 07:01:58;;;;;;;7.80;6.70;;;5.70;99.90;;;;;;4089540;34;20875;31
2021/04/02 07:04:31;;;;;;;11.50;8.35;;;5.70;99.90;;;;;;4102286;34;20034;31
2021/04/02 07:07:03;;;;;;;17.15;11.40;;;5.80;99.90;;;;;;4065292;34;20061;31
2021/04/02 07:09:38;;;;;;;10.23;8.10;;;5.80;99.90;;;;;;4089527;34;20027;31
2021/04/02 07:12:11;;;;;;;10.57;7.80;;;5.90;99.90;;;;;;4102179;34;20031;31
2021/04/02 07:14:43;;;;;;;8.52;7.07;;;5.90;99.90;;;;;;4091704;34;20031;31
2021/04/02 07:17:15;;;;;;;7.97;7.15;;;6.00;99.90;;;;;;4076614;34;20024;31
2021/04/02 07:19:45;;;;;;;7.90;6.78;;;6.00;99.90;;;;;;4101144;34;20054;31
2021/04/02 07:22:16;;;;;;;11.00;7.70;;;6.00;99.90;;;;;;4101738;34;20077;31
2021/04/02 07:24:47;;;;;;;11.05;9.05;;;6.00;99.90;;;;;;4075194;34;20125;31
2021/04/02 07:27:17;;;;;;;12.57;9.97;;;6.00;99.90;;;;;;4080599;34;20081;31
2021/04/02 07:29:48;;;;;;;10.45;8.80;;;6.10;99.90;;;;;;4059598;34;20922;31
2021/04/02 07:32:19;;;;;;;18.67;13.23;;;6.10;99.90;;;;;;4100064;34;20920;31
2021/04/02 07:34:51;;;;;;;11.30;8.10;;;6.20;99.90;;;;;;4067972;34;20046;31
2021/04/02 07:37:21;;;;;;;9.68;6.45;;;6.30;99.90;;;;;;4089301;34;20058;31
2021/04/02 07:39:55;;;;;;;8.10;7.00;;;6.30;99.90;;;;;;4091575;34;20047;31
2021/04/02 07:42:26;;;;;;;9.75;7.40;;;6.30;99.90;;;;;;4077893;34;20070;31
2021/04/02 07:44:56;;;;;;;9.33;7.93;;;6.40;99.90;;;;;;4090052;34;20055;31
2021/04/02 07:47:26;;;;;;;9.27;7.35;;;6.40;99.90;;;;;;4100430;34;20251;31
2021/04/02 07:50:01;;;;;;;9.10;7.95;;;6.50;99.90;;;;;;4068817;34;20077;31
2021/04/02 07:55:17;;;;;;;12.93;8.48;;;6.50;99.90;;;;;;4100360;34;20341;31
2021/04/02 07:57:52;;;;;;;10.60;8.57;;;6.70;99.90;;;;;;4070260;34;20027;31
2021/04/02 08:00:23;;;;;;;10.95;7.60;;;6.80;99.90;;;;;;4081511;34;20051;31
2021/04/02 08:03:14;;;;;;;8.97;7.37;;;6.80;99.90;;;;;;4093476;34;20134;31
2021/04/02 08:05:54;;;;;;;7.85;6.85;;;6.90;99.90;;;;;;4072451;34;20116;31
2021/04/02 08:08:24;;;;;;;9.07;7.18;;;6.90;99.90;;;;;;4114921;34;20045;31
2021/04/02 08:11:31;;;;;;;14.43;11.10;;;7.00;99.90;;;;;;4084348;34;20031;31
2021/04/02 08:14:09;;;;;;;8.93;7.20;;;7.00;99.90;;;;;;4103102;34;20155;31
2021/04/02 08:16:49;;;;;;;10.88;8.32;;;7.10;99.90;;;;;;4073548;34;20056;31
2021/04/02 08:19:32;;;;;;;9.90;8.30;;;7.10;99.90;;;;;;4061054;34;20031;31
2021/04/02 08:22:10;;;;;;;10.45;7.90;;;7.10;99.90;;;;;;4104276;34;20928;31
2021/04/02 08:24:48;;;;;;;9.02;7.50;;;7.20;99.90;;;;;;4082989;34;20027;31
2021/04/02 08:27:18;;;;;;;9.02;7.45;;;7.30;99.90;;;;;;4061101;34;20035;31
2021/04/02 08:30:01;;;;;;;10.25;8.00;;;7.40;99.90;;;;;;4073132;34;20031;31
2021/04/02 08:32:34;;;;;;;8.48;7.57;;;7.50;99.90;;;;;;4082115;34;20031;31
2021/04/02 08:35:05;;;;;;;9.23;7.70;;;7.70;99.90;;;;;;4081601;34;20463;31
2021/04/02 08:37:35;;;;;;;9.10;8.00;;;7.80;99.90;;;;;;4067317;34;20055;31
2021/04/02 08:40:09;;;;;;;9.38;7.65;;;7.80;99.90;;;;;;4080043;34;20045;31
2021/04/02 08:42:38;;;;;;;8.35;7.15;;;7.90;99.90;;;;;;4082062;34;22252;31
2021/04/02 08:45:09;;;;;;;9.70;7.80;;;8.00;99.90;;;;;;4080261;34;20038;31
2021/04/02 08:47:40;;;;;;;8.05;7.03;;;8.10;99.90;;;;;;4054672;34;20073;31
2021/04/02 08:50:10;;;;;;;9.55;7.55;;;8.20;99.90;;;;;;4088757;34;19915;31
2021/04/02 08:52:40;;;;;;;12.50;6.90;;;8.60;99.90;;;;;;4056670;34;20032;31
2021/04/02 08:55:11;;;;;;;9.40;7.17;;;8.80;99.90;;;;;;4090857;34;20921;31
2021/04/02 08:57:42;;;;;;;8.40;6.95;;;8.80;99.90;;;;;;4079761;34;20038;31
2021/04/02 09:00:13;;;;;;;9.50;6.85;;;8.90;99.90;;;;;;4103410;34;20031;31
2021/04/02 09:02:44;;;;;;;10.50;7.82;;;8.90;99.90;;;;;;4068529;34;20024;31
2021/04/02 09:05:14;;;;;;;9.95;8.20;;;8.90;99.90;;;;;;4077081;34;20049;31
2021/04/02 09:07:45;;;;;;;8.00;6.72;;;9.00;99.90;;;;;;4053523;34;20039;31
2021/04/02 09:10:16;;;;;;;8.00;6.95;;;9.50;99.90;;;;;;4086220;34;20077;31
2021/04/02 09:12:48;;;;;;;7.63;6.82;;;9.70;99.90;;;;;;4067063;34;20099;31
2021/04/02 09:15:33;;;;;;;8.85;6.97;;;9.90;99.90;;;;;;4091239;34;20027;31
2021/04/02 09:18:28;;;;;;;9.05;6.57;;;10.00;99.90;;;;;;4075907;34;20038;31
2021/04/02 09:21:00;;;;;;;10.93;9.07;;;10.10;99.90;;;;;;4077791;34;20038;31
2021/04/02 09:23:31;;;;;;;7.20;6.50;;;10.50;99.90;;;;;;4061889;34;20245;31
2021/04/02 09:26:09;;;;;;;7.30;5.90;;;10.90;99.90;;;;;;4080197;34;20031;31
2021/04/02 09:28:40;;;;;;;7.30;6.60;;;11.50;99.90;;;;;;4054531;34;20032;31
2021/04/02 09:31:27;;;;;;;6.17;5.43;;;11.80;99.90;;;;;;4054572;34;20027;31
2021/04/02 09:33:59;;;;;;;7.32;6.38;;;12.00;99.90;;;;;;4076837;34;20222;31
2021/04/02 09:36:29;;;;;;;10.60;4.15;;;12.10;99.90;;;;;;4066909;34;22207;31
2021/04/02 09:39:13;;;;;;;7.53;6.75;;;12.10;99.90;;;;;;4054580;34;20031;31
2021/04/02 09:41:49;;;;;;;8.35;6.95;;;11.90;99.90;;;;;;4087162;34;20086;31
2021/04/02 09:44:36;;;;;;;7.93;6.72;;;11.70;99.90;;;;;;4077366;34;20042;31
2021/04/02 09:47:04;;;;;;;;;;;11.40;99.90;;;;;;4057584;34;20148;31
2021/04/02 09:49:36;;;;;;;6.97;6.30;;;11.50;99.90;;;;;;4100824;34;19942;31
2021/04/02 09:52:07;;;;;;;7.82;7.03;;;11.70;99.90;;;;;;4078146;34;20042;31
2021/04/02 09:54:38;;;;;;;8.20;6.55;;;11.90;99.90;;;;;;4067749;34;20047;31
2021/04/02 09:57:09;;;;;;;6.70;5.80;;;12.20;99.90;;;;;;4064514;34;20161;31
2021/04/02 09:59:39;;;;;;;7.47;6.70;;;12.40;99.90;;;;;;4077837;34;20076;31
2021/04/02 10:02:10;;;;;;;7.50;6.35;;;12.60;99.90;;;;;;4078337;34;20050;31
2021/04/02 10:04:40;;;;;;;7.40;6.63;;;13.00;99.90;;;;;;4088268;34;20031;31
2021/04/02 10:07:12;;;;;;;7.40;6.67;;;13.30;99.90;;;;;;4075746;34;20090;31
2021/04/02 10:09:42;;;;;;;9.23;6.75;;;13.40;99.90;;;;;;4076135;34;20027;31
2021/04/02 10:12:12;;;;;;;7.67;6.63;;;13.50;98.20;;;;;;4054415;34;20091;31
2021/04/02 10:14:43;;;;;;;9.10;6.90;;;13.30;98.10;;;;;;4055849;34;20170;31
2021/04/02 10:17:13;;;;;;;7.83;7.03;;;13.10;99.90;;;;;;4067250;34;20050;31
2021/04/02 10:19:43;;;;;;;9.70;6.57;;;12.90;99.90;;;;;;4078592;34;20027;31
2021/04/02 10:22:13;;;;;;;7.50;6.70;;;12.70;99.90;;;;;;4044858;34;20024;31
2021/04/02 10:24:43;;;;;;;8.67;6.80;;;12.70;99.90;;;;;;4068450;34;20081;31
2021/04/02 10:27:15;;;;;;;6.70;5.95;;;12.80;99.90;;;;;;4068680;34;20038;31
2021/04/02 10:29:45;;;;;;;9.27;7.50;;;12.70;99.90;;;;;;4069899;34;20045;31
2021/04/02 10:32:15;;;;;;;7.40;6.57;;;12.50;99.90;;;;;;4054513;34;20032;31
2021/04/02 10:34:45;;;;;;;11.48;6.50;;;12.20;99.90;;;;;;4075480;34;20148;31
2021/04/02 10:37:25;;;;;;;6.75;6.05;;;12.00;99.90;;;;;;4100077;34;20094;31
2021/04/02 10:39:56;;;;;;;7.53;6.68;;;11.70;99.90;;;;;;4067206;34;20839;31
2021/04/02 10:42:26;;;;;;;7.37;6.47;;;11.60;99.90;;;;;;4069160;34;20042;31
2021/04/02 10:44:56;;;;;;;7.73;5.70;;;11.50;99.90;;;;;;4078407;34;20059;31
2021/04/02 10:47:26;;;;;;;7.55;5.95;;;11.70;99.90;;;;;;4053099;34;20039;31
2021/04/02 10:50:00;;;;;;;6.50;5.87;;;11.80;99.90;;;;;;4064769;34;20046;31
2021/04/02 10:52:30;;;;;;;8.70;6.70;;;11.90;99.90;;;;;;4076085;34;21002;31
2021/04/02 10:55:00;;;;;;;6.35;5.70;;;12.10;99.90;;;;;;4076219;34;20034;31
2021/04/02 10:57:28;;;;;;;8.98;5.90;;;12.40;99.90;;;;;;4077829;34;22214;31
2021/04/02 10:59:58;;;;;;;6.35;5.43;;;12.30;99.90;;;;;;4066758;34;20169;31
2021/04/02 11:02:28;;;;;;;5.78;4.85;;;12.20;99.90;;;;;;4053577;34;20912;31
2021/04/02 11:04:59;;;;;;;6.40;5.78;;;12.10;99.50;;;;;;4054204;34;20091;31
2021/04/02 11:07:31;;;;;;;6.37;5.73;;;12.20;98.30;;;;;;4054455;34;20028;31
2021/04/02 11:10:01;;;;;;;8.32;6.10;;;12.20;99.90;;;;;;4054100;34;20047;31
2021/04/02 11:12:31;;;;;;;6.75;5.68;;;12.30;99.90;;;;;;4053395;34;20082;31
2021/04/02 11:15:01;;;;;;;7.97;6.13;;;12.40;99.30;;;;;;4053305;34;20870;31
2021/04/02 11:17:33;;;;;;;6.78;6.07;;;12.50;99.90;;;;;;4054287;34;20055;31
2021/04/02 11:20:03;;;;;;;7.35;6.65;;;12.50;99.90;;;;;;4077024;34;20878;31
2021/04/02 11:22:38;;;;;;;6.85;6.15;;;12.60;99.90;;;;;;4067832;34;20038;31
2021/04/02 11:25:09;;;;;;;9.45;6.63;;;12.60;99.40;;;;;;4065370;34;20028;31
2021/04/02 11:27:42;;;;;;;6.95;5.80;;;12.60;99.20;;;;;;4076132;34;20032;31
2021/04/02 11:30:14;;;;;;;11.65;6.05;;;12.70;99.20;;;;;;4064265;34;19915;31
2021/04/02 11:32:44;;;;;;;9.35;5.97;;;12.70;98.50;;;;;;4065877;34;20031;31
2021/04/02 11:35:14;;;;;;;8.43;6.13;;;12.60;98.90;;;;;;4066290;34;20820;31
2021/04/02 11:37:44;;;;;;;8.00;6.25;;;12.70;99.10;;;;;;4068644;34;20272;31
2021/04/02 11:40:15;;;;;;;7.35;6.60;;;12.80;99.30;;;;;;4065092;34;20032;31
2021/04/02 11:42:46;;;;;;;7.10;6.40;;;12.70;99.10;;;;;;4090190;34;20912;31
2021/04/02 11:45:17;;;;;;;6.25;5.65;;;12.70;97.70;;;;;;4069602;34;20027;31
2021/04/02 11:47:47;;;;;;;6.40;5.68;;;12.60;95.30;;;;;;4065536;34;20032;31
2021/04/02 11:50:17;;;;;;;7.63;6.57;;;12.50;94.90;;;;;;4066988;34;20842;31
2021/04/02 11:52:47;;;;;;;6.72;5.57;;;12.50;95.30;;;;;;4078575;34;20947;31
2021/04/02 11:55:17;;;;;;;6.63;6.03;;;12.50;95.50;;;;;;4054615;34;20054;31
2021/04/02 11:57:47;;;;;;;11.55;6.72;;;12.40;96.10;;;;;;4088856;34;20049;31
2021/04/02 12:00:18;;;;;;;7.55;6.75;;;12.40;98.10;;;;;;4054829;34;20113;31
2021/04/02 12:02:48;;;;;;;6.60;5.90;;;12.50;97.90;;;;;;4076108;34;20051;31
2021/04/02 12:05:23;;;;;;;7.90;6.20;;;12.60;99.40;;;;;;4079722;34;20982;31
2021/04/02 12:07:56;;;;;;;6.15;5.55;;;12.60;96.50;;;;;;4066202;34;20028;31
2021/04/02 12:10:27;;;;;;;6.90;6.22;;;12.60;95.30;;;;;;4079064;34;20023;31
2021/04/02 12:12:57;;;;;;;7.55;6.45;;;12.60;94.40;;;;;;4068487;34;20156;31
2021/04/02 12:15:27;;;;;;;6.13;5.53;;;12.50;94.90;;;;;;4064068;34;20027;31
2021/04/02 12:17:57;;;;;;;7.15;6.45;;;12.60;95.30;;;;;;4076174;34;20027;31
2021/04/02 12:20:27;;;;;;;7.45;6.50;;;12.70;95.00;;;;;;4087080;34;20123;31
2021/04/02 12:22:57;;;;;;;9.30;6.40;;;12.70;96.70;;;;;;4064832;34;20034;31
2021/04/02 12:25:28;;;;;;;6.88;5.95;;;12.60;95.50;;;;;;4063983;34;20930;31
2021/04/02 12:27:58;;;;;;;6.25;5.65;;;12.70;95.60;;;;;;4077908;34;20046;31
2021/04/02 12:30:28;;;;;;;6.13;5.25;;;12.70;93.40;;;;;;4088843;34;20147;31
2021/04/02 12:32:58;;;;;;;6.38;5.78;;;12.60;92.30;;;;;;4068065;34;20815;31
2021/04/02 12:35:28;;;;;;;6.40;5.75;;;12.50;92.00;;;;;;4078530;34;20862;31
2021/04/02 12:37:56;;;;;;;6.90;6.20;;;12.50;92.80;;;;;;4088785;34;22194;31
2021/04/02 12:40:27;;;;;;;6.35;5.75;;;12.60;92.60;;;;;;4088026;34;20027;31
2021/04/02 12:42:58;;;;;;;6.30;5.55;;;12.60;92.90;;;;;;4073517;34;20032;31
2021/04/02 12:45:29;;;;;;;7.03;5.57;;;12.50;92.40;;;;;;4086835;34;20027;31
2021/04/02 12:48:00;;;;;;;7.85;6.65;;;12.50;90.90;;;;;;4067489;34;20031;31
2021/04/02 12:50:32;;;;;;;7.93;6.93;;;12.40;91.50;;;;;;4089042;34;20039;31
2021/04/02 12:53:03;;;;;;;7.10;6.40;;;12.50;94.30;;;;;;4097142;34;19938;31
2021/04/02 12:55:35;;;;;;;6.97;6.38;;;12.40;93.60;;;;;;4067787;34;19915;31
2021/04/02 12:58:06;;;;;;;7.90;6.60;;;12.40;95.80;;;;;;4065061;34;20112;31
2021/04/02 13:00:36;;;;;;;6.15;5.45;;;12.40;94.70;;;;;;4078188;34;20027;31
2021/04/02 13:03:06;;;;;;;8.40;6.78;;;12.40;91.80;;;;;;4066215;34;20864;31
2021/04/02 13:05:35;;;;;;;7.50;6.25;;;12.40;92.80;;;;;;4053337;34;20982;31
2021/04/02 13:08:10;;;;;;;8.30;6.15;;;12.30;89.80;;;;;;4077221;34;20112;31
2021/04/02 13:10:41;;;;;;;6.63;5.93;;;12.40;93.80;;;;;;4077109;34;20051;31
2021/04/02 13:13:11;;;;;;;8.38;6.07;;;12.40;92.30;;;;;;4086743;34;20200;31
2021/04/02 13:16:06;;;;;;;7.07;6.20;;;12.40;88.90;;;;;;4067908;34;20044;31
2021/04/02 13:21:35;;;;;;;10.32;8.10;;;12.40;93.30;;;;;;4087862;34;21174;31
2021/04/02 13:24:06;;;;;;;9.68;7.10;;;12.40;94.60;;;;;;4068491;34;20867;31
2021/04/02 13:26:37;;;;;;;8.60;7.30;;;12.30;93.00;;;;;;4054148;34;20032;31
2021/04/02 13:29:07;;;;;;;7.70;6.75;;;12.30;94.60;;;;;;4066147;34;20056;31
2021/04/02 13:31:37;;;;;;;8.55;6.80;;;12.40;93.30;;;;;;4044711;34;19926;31